Time;durP1;ratioP1;P1;durP2;ratioP2;P2;SDS_P1;SDS_P2;PMS_P1;PMS_P2;Temp;Humidity;BMP_temperature;BMP_pressure;BME280_temperature;BME280_humidity;BME280_pressure;Samples;Min_cycle;Max_cycle;Signal;HPM_P1;HPM_P2
2022/09/20 00:00:47;;;;;;;1.13;0.40;;;9.00;99.90;;;;;;5098512;28;20115;-45
2022/09/20 00:03:15;;;;;;;0.65;0.30;;;9.00;99.90;;;;;;5093267;28;20123;-45
2022/09/20 00:05:44;;;;;;;1.48;0.28;;;8.90;99.90;;;;;;5092758;28;20102;-45
2022/09/20 00:08:13;;;;;;;0.68;0.20;;;8.80;99.90;;;;;;5082881;28;20041;-45
2022/09/20 00:10:41;;;;;;;1.23;0.40;;;8.80;99.90;;;;;;5093127;28;20451;-45
2022/09/20 00:13:10;;;;;;;1.08;0.30;;;8.80;99.90;;;;;;5091454;28;20044;-45
2022/09/20 00:15:45;;;;;;;0.77;0.40;;;8.80;99.90;;;;;;5092020;28;20076;-45
2022/09/20 00:18:12;;;;;;;0.40;0.30;;;8.80;99.90;;;;;;5084188;28;20066;-46
2022/09/20 00:20:45;;;;;;;;;;;8.70;99.90;;;;;;5092529;28;20040;-45
2022/09/20 00:23:12;;;;;;;0.20;0.20;;;8.70;99.90;;;;;;5091883;22;20014;-44
2022/09/20 00:25:39;;;;;;;0.20;0.20;;;8.70;99.90;;;;;;5091097;28;20115;-44
2022/09/20 00:28:07;;;;;;;0.55;0.22;;;8.60;99.90;;;;;;5113034;28;20126;-45
2022/09/20 00:30:34;;;;;;;0.52;0.10;;;8.60;99.90;;;;;;5111277;28;20067;-44
2022/09/20 00:33:01;;;;;;;0.85;0.30;;;8.60;99.90;;;;;;5092474;28;20080;-44
2022/09/20 00:35:28;;;;;;;0.70;0.40;;;8.60;99.90;;;;;;5091632;28;20068;-44
2022/09/20 00:37:55;;;;;;;0.85;0.40;;;8.50;99.90;;;;;;5084888;28;20566;-44
2022/09/20 00:40:25;;;;;;;0.90;0.50;;;8.50;99.90;;;;;;5092345;28;20119;-44
2022/09/20 00:42:52;;;;;;;0.93;0.30;;;8.50;99.90;;;;;;5083298;28;20716;-44
2022/09/20 00:45:27;;;;;;;0.43;0.40;;;8.50;99.90;;;;;;5084552;28;20071;-44
2022/09/20 00:48:05;;;;;;;3.47;1.00;;;8.40;99.90;;;;;;5111736;28;20071;-45
2022/09/20 00:50:50;;;;;;;2.90;1.13;;;8.50;99.90;;;;;;5094402;28;20086;-44
2022/09/20 00:53:25;;;;;;;3.15;1.20;;;8.50;99.90;;;;;;5106257;28;20526;-44
2022/09/20 00:56:05;;;;;;;2.67;0.47;;;8.50;99.90;;;;;;5112398;28;20075;-44
2022/09/20 00:58:39;;;;;;;2.80;0.98;;;8.50;99.90;;;;;;5094276;28;20068;-44
2022/09/20 01:01:06;;;;;;;1.40;0.30;;;8.60;99.90;;;;;;5109054;28;20519;-44
2022/09/20 01:03:35;;;;;;;1.42;0.40;;;8.60;99.90;;;;;;5103715;28;20122;-44
2022/09/20 01:06:05;;;;;;;0.35;0.30;;;8.60;99.90;;;;;;5112423;28;20554;-44
2022/09/20 01:08:34;;;;;;;1.83;0.77;;;8.60;99.90;;;;;;5112110;28;20071;-45
2022/09/20 01:11:01;;;;;;;4.68;1.20;;;8.60;99.90;;;;;;5106709;28;20075;-44
2022/09/20 01:13:28;;;;;;;;;;;8.60;99.90;;;;;;5112102;28;20101;-44
2022/09/20 01:15:58;;;;;;;1.20;0.70;;;8.50;99.90;;;;;;5111295;28;19924;-44
2022/09/20 01:18:28;;;;;;;0.63;0.40;;;8.50;99.90;;;;;;5110528;28;20118;-44
2022/09/20 01:20:56;;;;;;;0.20;0.20;;;8.40;99.90;;;;;;5095357;28;20929;-44
2022/09/20 01:23:42;;;;;;;1.02;0.50;;;8.40;99.90;;;;;;5111006;28;20131;-44
2022/09/20 01:26:37;;;;;;;2.45;0.43;;;8.50;99.90;;;;;;5112103;28;20091;-44
2022/09/20 01:29:16;;;;;;;2.85;0.50;;;8.50;99.90;;;;;;5068849;28;20056;-44
2022/09/20 01:31:52;;;;;;;1.17;0.50;;;8.40;99.90;;;;;;5096992;28;20078;-44
2022/09/20 01:34:27;;;;;;;0.85;0.60;;;8.40;99.90;;;;;;5111795;28;20062;-44
2022/09/20 01:37:03;;;;;;;2.55;0.90;;;8.40;99.90;;;;;;5111455;28;20075;-44
2022/09/20 01:39:40;;;;;;;0.88;0.52;;;8.50;99.90;;;;;;5112087;28;20126;-44
2022/09/20 01:42:10;;;;;;;3.67;0.57;;;8.50;99.90;;;;;;5108681;28;20039;-44
2022/09/20 01:44:54;;;;;;;2.08;0.50;;;8.60;99.90;;;;;;5111214;28;20606;-45
2022/09/20 01:47:49;;;;;;;1.90;0.35;;;8.50;99.90;;;;;;5112186;28;20044;-44
2022/09/20 01:50:24;;;;;;;1.15;0.40;;;8.50;99.90;;;;;;5064093;28;20086;-45
2022/09/20 01:53:28;;;;;;;1.75;0.50;;;8.40;99.90;;;;;;5111676;28;20122;-44
2022/09/20 01:56:18;;;;;;;1.02;0.50;;;8.40;99.90;;;;;;5108079;28;20071;-44
2022/09/20 01:59:46;;;;;;;0.90;0.40;;;8.40;99.90;;;;;;5105370;28;20069;-43
2022/09/20 02:02:21;;;;;;;4.13;0.30;;;8.40;99.90;;;;;;5008596;28;20495;-44
2022/09/20 02:05:03;;;;;;;0.65;0.22;;;8.30;99.90;;;;;;5008074;28;20141;-44
2022/09/20 02:07:45;;;;;;;2.92;0.35;;;8.40;99.90;;;;;;5073256;28;20131;-44
2022/09/20 02:10:45;;;;;;;1.65;0.45;;;8.30;99.90;;;;;;5110823;28;20460;-44
2022/09/20 02:13:48;;;;;;;0.50;0.40;;;8.30;99.90;;;;;;5107875;28;21104;-44
2022/09/20 02:16:49;;;;;;;1.42;0.50;;;8.30;99.90;;;;;;5109257;28;20036;-44
2022/09/20 02:19:36;;;;;;;0.65;0.45;;;8.30;99.90;;;;;;5058252;28;20060;-44
2022/09/20 02:22:18;;;;;;;1.33;0.40;;;8.30;99.90;;;;;;5109754;28;20040;-44
2022/09/20 02:25:14;;;;;;;0.47;0.47;;;8.30;99.90;;;;;;5114319;28;20104;-44
2022/09/20 02:28:20;;;;;;;0.68;0.40;;;8.40;99.90;;;;;;5115577;28;20048;-44
2022/09/20 02:31:01;;;;;;;0.82;0.50;;;8.30;99.90;;;;;;5112100;28;20054;-44
2022/09/20 02:33:45;;;;;;;0.90;0.70;;;8.30;99.90;;;;;;5115168;28;20035;-44
2022/09/20 02:36:33;;;;;;;0.73;0.55;;;8.30;99.90;;;;;;5115067;28;20585;-44
2022/09/20 02:39:16;;;;;;;1.52;0.80;;;8.30;99.90;;;;;;5116005;28;20539;-44
2022/09/20 02:41:58;;;;;;;5.53;1.30;;;8.30;99.90;;;;;;5110408;28;20070;-44
2022/09/20 02:44:32;;;;;;;4.85;1.50;;;8.30;99.90;;;;;;5114913;28;20086;-44
2022/09/20 02:47:15;;;;;;;2.08;1.20;;;8.30;99.90;;;;;;5103573;28;20118;-44
2022/09/20 02:50:18;;;;;;;2.65;1.20;;;8.40;99.90;;;;;;5114647;28;20071;-44
2022/09/20 02:53:11;;;;;;;2.00;1.17;;;8.30;99.90;;;;;;5093839;28;20097;-44
2022/09/20 02:56:07;;;;;;;1.73;1.10;;;8.40;99.90;;;;;;5068528;28;20071;-44
2022/09/20 02:58:53;;;;;;;2.55;1.17;;;8.30;99.90;;;;;;5094001;28;20197;-44
2022/09/20 03:01:50;;;;;;;3.25;1.30;;;8.30;99.90;;;;;;5115151;28;20086;-44
2022/09/20 03:04:48;;;;;;;2.78;1.40;;;8.40;99.90;;;;;;5107378;28;20044;-44
2022/09/20 03:07:41;;;;;;;2.60;1.00;;;8.30;99.90;;;;;;5115018;28;20531;-44
2022/09/20 03:10:46;;;;;;;1.50;1.20;;;8.30;99.90;;;;;;5114831;28;20078;-44
2022/09/20 03:13:34;;;;;;;2.78;1.33;;;8.30;99.90;;;;;;5061056;28;20143;-44
2022/09/20 03:16:14;;;;;;;2.33;1.52;;;8.30;99.90;;;;;;5114223;28;20557;-44
2022/09/20 03:19:02;;;;;;;6.35;2.40;;;8.30;99.90;;;;;;5110114;28;20039;-44
2022/09/20 03:21:53;;;;;;;4.32;1.70;;;8.30;99.90;;;;;;5113727;28;20059;-44
2022/09/20 03:24:42;;;;;;;3.03;1.80;;;8.30;99.90;;;;;;5108486;28;20123;-45
2022/09/20 03:27:12;;;;;;;3.65;2.30;;;8.30;99.90;;;;;;5113876;28;20106;-44
2022/09/20 03:30:14;;;;;;;7.07;2.55;;;8.30;99.90;;;;;;5107751;28;20071;-44
2022/09/20 03:33:09;;;;;;;4.53;2.38;;;8.30;99.90;;;;;;5113207;28;20040;-44
2022/09/20 03:36:03;;;;;;;2.28;1.80;;;8.30;99.90;;;;;;5113221;28;20126;-44
2022/09/20 03:39:05;;;;;;;3.97;2.10;;;8.40;99.90;;;;;;5103264;28;20066;-44
2022/09/20 03:42:03;;;;;;;4.00;1.70;;;8.30;99.90;;;;;;5096588;28;20043;-45
2022/09/20 03:45:22;;;;;;;2.25;1.52;;;8.40;99.90;;;;;;5113387;28;20519;-44
2022/09/20 03:48:17;;;;;;;3.55;1.00;;;8.40;99.90;;;;;;5107980;28;20071;-44
2022/09/20 03:50:47;;;;;;;1.25;0.70;;;8.40;99.90;;;;;;5111316;28;20558;-44
2022/09/20 03:53:39;;;;;;;1.73;0.70;;;8.30;99.90;;;;;;5109714;28;20123;-45
2022/09/20 03:56:24;;;;;;;4.00;0.95;;;8.30;99.90;;;;;;5112546;28;20078;-44
2022/09/20 03:59:00;;;;;;;3.17;1.50;;;8.30;99.90;;;;;;5113125;28;20447;-44
2022/09/20 04:01:44;;;;;;;1.85;1.48;;;8.30;99.90;;;;;;5105142;28;20085;-44
2022/09/20 04:04:35;;;;;;;2.67;1.35;;;8.30;99.90;;;;;;5113496;28;20071;-44
2022/09/20 04:07:27;;;;;;;4.03;1.80;;;8.30;99.90;;;;;;5111819;28;20122;-44
2022/09/20 04:09:58;;;;;;;2.95;2.03;;;8.30;99.90;;;;;;5113373;28;20494;-44
2022/09/20 04:12:41;;;;;;;2.88;1.73;;;8.30;99.90;;;;;;5111076;28;20063;-44
2022/09/20 04:15:39;;;;;;;3.08;1.98;;;8.20;99.90;;;;;;5112424;28;20078;-44
2022/09/20 04:18:34;;;;;;;3.92;1.90;;;8.20;99.90;;;;;;5104093;28;20122;-44
2022/09/20 04:21:04;;;;;;;5.82;2.00;;;8.30;99.90;;;;;;5108458;28;20075;-44
2022/09/20 04:23:48;;;;;;;2.03;1.58;;;8.20;99.90;;;;;;5112278;28;20555;-45
2022/09/20 04:26:23;;;;;;;5.45;1.83;;;8.10;99.90;;;;;;5109271;28;20122;-45
2022/09/20 04:29:17;;;;;;;4.88;1.40;;;8.10;99.90;;;;;;5112932;28;20078;-44
2022/09/20 04:32:20;;;;;;;2.20;1.10;;;8.10;99.90;;;;;;5108291;28;20137;-43
2022/09/20 04:38:06;;;;;;;5.45;1.50;;;8.10;99.90;;;;;;5089918;28;20071;-44
2022/09/20 04:40:58;;;;;;;3.85;1.40;;;8.00;99.90;;;;;;5109935;28;20415;-45
2022/09/20 04:44:03;;;;;;;2.45;1.48;;;7.90;99.90;;;;;;5109574;28;20468;-44
2022/09/20 04:46:48;;;;;;;3.97;1.70;;;7.90;99.90;;;;;;5107902;28;20104;-44
2022/09/20 04:49:38;;;;;;;6.95;1.98;;;7.90;99.90;;;;;;5111004;28;20054;-44
2022/09/20 04:52:18;;;;;;;4.78;1.30;;;7.90;99.90;;;;;;5110092;28;20039;-44
2022/09/20 04:55:14;;;;;;;2.47;1.80;;;7.90;99.90;;;;;;5108213;28;20047;-44
2022/09/20 04:58:06;;;;;;;5.05;1.58;;;7.80;99.90;;;;;;5098910;28;20142;-44
2022/09/20 05:01:06;;;;;;;4.55;1.60;;;7.70;99.90;;;;;;5093350;28;20089;-45
2022/09/20 05:04:22;;;;;;;7.22;2.90;;;7.70;99.90;;;;;;5103676;28;20039;-44
2022/09/20 05:07:26;;;;;;;3.47;1.58;;;7.70;99.90;;;;;;5112005;28;20075;-44
2022/09/20 05:10:14;;;;;;;3.42;1.63;;;7.70;99.90;;;;;;5089213;28;20059;-44
2022/09/20 05:13:04;;;;;;;4.63;1.67;;;7.70;99.90;;;;;;5105893;28;20063;-44
2022/09/20 05:15:59;;;;;;;3.28;1.73;;;7.70;99.90;;;;;;5111820;28;20051;-44
2022/09/20 05:19:22;;;;;;;1.90;1.35;;;7.80;99.90;;;;;;5101834;28;20140;-43
2022/09/20 05:22:18;;;;;;;2.90;1.48;;;7.80;99.90;;;;;;5009668;28;20069;-44
2022/09/20 05:25:08;;;;;;;3.25;1.50;;;7.80;99.90;;;;;;5001764;28;20034;-43
2022/09/20 05:28:26;;;;;;;2.42;1.40;;;7.80;99.90;;;;;;5086238;28;20048;-44
2022/09/20 05:31:01;;;;;;;3.08;1.17;;;7.90;99.90;;;;;;5061580;28;20079;-44
2022/09/20 05:33:33;;;;;;;2.10;1.40;;;8.00;99.90;;;;;;5107975;28;20038;-44
2022/09/20 05:36:09;;;;;;;2.53;1.42;;;7.90;99.90;;;;;;5094520;27;20053;-44
2022/09/20 05:38:46;;;;;;;4.43;1.63;;;7.90;99.90;;;;;;5101953;28;20059;-45
2022/09/20 05:41:36;;;;;;;2.13;1.50;;;8.00;99.90;;;;;;5095716;28;20036;-44
2022/09/20 05:44:22;;;;;;;3.92;1.23;;;8.00;99.90;;;;;;5110087;28;20276;-44
2022/09/20 05:47:20;;;;;;;5.57;1.27;;;7.90;99.90;;;;;;5104035;28;20381;-44
2022/09/20 05:50:17;;;;;;;2.55;1.50;;;7.90;99.90;;;;;;5096948;28;20043;-44
2022/09/20 05:53:01;;;;;;;4.63;1.85;;;7.90;99.90;;;;;;5104839;28;20127;-43
2022/09/20 05:55:53;;;;;;;7.22;1.90;;;7.80;99.90;;;;;;5102840;27;20431;-43
2022/09/20 05:58:30;;;;;;;5.45;2.22;;;7.90;99.90;;;;;;5107800;28;20074;-46
2022/09/20 06:01:32;;;;;;;4.30;1.50;;;7.90;99.90;;;;;;5110426;28;20122;-44
2022/09/20 06:04:19;;;;;;;3.42;1.90;;;7.90;99.90;;;;;;5110831;28;20035;-44
2022/09/20 06:07:04;;;;;;;10.55;2.95;;;7.80;99.90;;;;;;5108360;28;20123;-44
2022/09/20 06:09:44;;;;;;;3.45;2.28;;;7.80;99.90;;;;;;5111610;28;20067;-44
2022/09/20 06:12:52;;;;;;;4.88;2.00;;;7.90;99.90;;;;;;5111464;28;20096;-44
2022/09/20 06:15:24;;;;;;;4.55;2.10;;;7.90;99.90;;;;;;5096709;28;20119;-44
2022/09/20 06:18:09;;;;;;;3.85;1.70;;;8.00;99.90;;;;;;5106141;28;20116;-44
2022/09/20 06:20:55;;;;;;;4.72;1.73;;;8.10;99.90;;;;;;5110329;28;20450;-44
2022/09/20 06:23:22;;;;;;;5.05;1.88;;;8.20;99.90;;;;;;5111424;28;20082;-44
2022/09/20 06:27:01;;;;;;;3.20;1.55;;;8.30;99.90;;;;;;5136574;22;20071;-46
2022/09/20 06:29:29;;;;;;;4.00;1.73;;;8.40;99.90;;;;;;5126895;28;20082;-46
2022/09/20 06:31:56;;;;;;;2.10;1.52;;;8.30;99.90;;;;;;5132255;28;20068;-46
2022/09/20 06:34:23;;;;;;;4.80;2.40;;;8.20;99.90;;;;;;5127122;28;20530;-46
2022/09/20 06:42:50;;;;;;;3.55;1.65;;;8.00;99.90;;;;;;5102735;28;20039;-46
2022/09/20 06:45:16;;;;;;;4.63;2.28;;;8.00;99.90;;;;;;5088371;28;20119;-46
2022/09/20 06:47:43;;;;;;;4.82;2.53;;;8.10;99.90;;;;;;5096920;28;20131;-47
2022/09/20 06:50:17;;;;;;;2.78;2.00;;;8.20;99.90;;;;;;5098734;28;20070;-48
2022/09/20 06:52:45;;;;;;;5.40;2.15;;;8.10;99.90;;;;;;5107348;28;20042;-45
2022/09/20 06:55:24;;;;;;;3.13;1.70;;;8.20;99.90;;;;;;5126959;27;20100;-46
2022/09/20 06:57:55;;;;;;;7.38;1.88;;;8.30;99.90;;;;;;5095838;28;20050;-46
2022/09/20 07:00:22;;;;;;;5.75;1.95;;;8.30;99.90;;;;;;5103474;28;20122;-46
2022/09/20 07:02:48;;;;;;;4.85;2.30;;;8.30;99.90;;;;;;5106800;28;20054;-45
2022/09/20 07:05:16;;;;;;;4.38;2.10;;;8.30;99.90;;;;;;5111825;28;20067;-48
2022/09/20 07:07:43;;;;;;;3.13;1.77;;;8.20;99.90;;;;;;5101798;28;20075;-45
2022/09/20 07:10:11;;;;;;;4.45;1.73;;;8.20;99.90;;;;;;5093693;28;20071;-45
2022/09/20 07:12:38;;;;;;;5.88;1.60;;;8.20;99.90;;;;;;5107619;28;20075;-47
2022/09/20 07:15:05;;;;;;;2.40;1.50;;;8.40;99.90;;;;;;5107662;28;20552;-47
2022/09/20 07:17:32;;;;;;;12.90;3.92;;;8.50;99.90;;;;;;5114075;28;20460;-47
2022/09/20 07:19:59;;;;;;;1.85;1.40;;;8.60;99.90;;;;;;5110297;28;20039;-45
2022/09/20 07:22:26;;;;;;;4.63;1.55;;;8.70;99.90;;;;;;5114234;28;20050;-46
2022/09/20 07:24:54;;;;;;;1.73;1.27;;;8.80;99.90;;;;;;5113433;28;20582;-47
2022/09/20 07:27:20;;;;;;;2.30;1.60;;;8.80;99.90;;;;;;5102747;28;20082;-47
2022/09/20 07:29:47;;;;;;;2.35;1.50;;;8.90;99.90;;;;;;5111216;27;20048;-46
2022/09/20 07:32:14;;;;;;;2.17;1.58;;;8.90;99.90;;;;;;5094074;28;20123;-47
2022/09/20 07:34:41;;;;;;;;;;;9.00;99.90;;;;;;5093144;28;20098;-47
2022/09/20 07:37:08;;;;;;;3.47;1.38;;;9.10;99.90;;;;;;5093730;28;20023;-48
2022/09/20 07:39:34;;;;;;;3.85;1.50;;;9.10;99.90;;;;;;5074148;28;20493;-47
2022/09/20 07:42:05;;;;;;;3.40;1.58;;;9.20;99.90;;;;;;5094305;28;20468;-47
2022/09/20 07:44:31;;;;;;;3.53;1.60;;;9.40;99.90;;;;;;5092801;28;20044;-47
2022/09/20 07:46:59;;;;;;;8.32;1.98;;;9.50;99.90;;;;;;5107000;28;20114;-48
2022/09/20 07:49:30;;;;;;;2.20;1.40;;;9.40;99.90;;;;;;5113018;28;20086;-47
2022/09/20 07:51:58;;;;;;;4.15;1.88;;;9.50;99.90;;;;;;5113142;28;20090;-47
2022/09/20 07:54:26;;;;;;;3.83;1.63;;;9.50;99.90;;;;;;5098607;27;20075;-46
2022/09/20 07:56:53;;;;;;;5.60;2.30;;;9.60;99.90;;;;;;5098196;28;20499;-47
2022/09/20 07:59:20;;;;;;;3.92;2.45;;;9.60;99.90;;;;;;5105364;28;20079;-47
2022/09/20 08:01:47;;;;;;;4.68;1.70;;;9.50;99.90;;;;;;5105068;28;20071;-47
2022/09/20 08:04:13;;;;;;;4.15;2.10;;;9.50;99.90;;;;;;5099695;28;20067;-47
2022/09/20 08:06:42;;;;;;;4.90;2.20;;;9.50;99.90;;;;;;5113473;28;20067;-46
2022/09/20 08:09:10;;;;;;;4.65;2.28;;;9.50;99.90;;;;;;5094067;28;20071;-46
2022/09/20 08:11:38;;;;;;;3.00;1.50;;;9.60;99.90;;;;;;5101679;28;20039;-47
2022/09/20 08:14:06;;;;;;;2.20;1.42;;;9.50;99.90;;;;;;5106766;28;20044;-47
2022/09/20 08:16:41;;;;;;;3.78;1.80;;;9.50;99.90;;;;;;5106691;28;20081;-47
2022/09/20 08:19:12;;;;;;;2.97;1.50;;;9.60;99.90;;;;;;5113272;28;20058;-46
2022/09/20 08:21:39;;;;;;;3.22;2.03;;;9.50;99.90;;;;;;5108156;28;20279;-46
2022/09/20 08:24:06;;;;;;;4.85;2.08;;;9.40;99.90;;;;;;5112716;28;20036;-47
2022/09/20 08:26:36;;;;;;;6.78;2.58;;;9.40;99.90;;;;;;5112394;28;20047;-46
2022/09/20 08:29:06;;;;;;;6.03;2.33;;;9.40;99.90;;;;;;5113345;28;20047;-46
2022/09/20 08:31:36;;;;;;;4.90;2.45;;;9.40;99.90;;;;;;5108754;28;20050;-47
2022/09/20 08:34:05;;;;;;;5.00;2.45;;;9.30;99.90;;;;;;5112727;28;20051;-46
2022/09/20 08:36:33;;;;;;;3.35;1.63;;;9.40;99.90;;;;;;5113036;28;20077;-47
2022/09/20 08:39:03;;;;;;;5.75;2.10;;;9.30;99.90;;;;;;5108905;28;20094;-47
2022/09/20 08:42:07;;;;;;;5.60;2.30;;;9.40;99.90;;;;;;5092743;28;20052;-47
2022/09/20 08:44:46;;;;;;;3.10;1.77;;;9.70;99.90;;;;;;5091219;28;20070;-48
2022/09/20 08:47:41;;;;;;;10.05;4.18;;;9.90;99.90;;;;;;5107747;28;20067;-48
2022/09/20 08:50:13;;;;;;;9.30;4.88;;;9.60;99.90;;;;;;5112192;28;20444;-46
2022/09/20 08:52:47;;;;;;;4.45;2.67;;;9.60;99.90;;;;;;5108280;27;20066;-47
2022/09/20 08:55:18;;;;;;;4.43;2.30;;;9.80;99.90;;;;;;5091875;28;20070;-47
2022/09/20 08:57:53;;;;;;;4.03;1.80;;;10.00;99.90;;;;;;5091537;28;20075;-46
2022/09/20 09:00:24;;;;;;;3.55;1.63;;;10.20;99.90;;;;;;5093025;28;20072;-47
2022/09/20 09:02:55;;;;;;;3.08;2.17;;;10.60;99.90;;;;;;5103163;28;20035;-46
2022/09/20 09:05:34;;;;;;;5.82;1.98;;;10.50;99.90;;;;;;5110661;28;20276;-46
2022/09/20 09:08:15;;;;;;;4.78;2.00;;;10.70;99.90;;;;;;5110631;28;20078;-47
2022/09/20 09:10:46;;;;;;;3.67;1.63;;;10.80;99.90;;;;;;5099833;28;20488;-47
2022/09/20 09:13:52;;;;;;;2.78;1.60;;;10.70;99.90;;;;;;5070973;28;20453;-47
2022/09/20 09:16:23;;;;;;;2.47;1.48;;;10.70;99.90;;;;;;5106040;28;20047;-47
2022/09/20 09:19:25;;;;;;;3.65;1.77;;;10.60;99.90;;;;;;5091202;28;20036;-47
2022/09/20 09:22:00;;;;;;;4.97;1.70;;;10.50;99.90;;;;;;5098669;28;20067;-47
2022/09/20 09:24:29;;;;;;;3.17;1.80;;;10.40;99.90;;;;;;5110765;28;20078;-48
2022/09/20 09:27:16;;;;;;;2.22;1.35;;;10.10;99.90;;;;;;5112443;28;20071;-47
2022/09/20 09:29:52;;;;;;;3.88;1.80;;;10.00;99.90;;;;;;5091555;28;20052;-47
2022/09/20 09:32:27;;;;;;;2.78;1.70;;;9.80;99.90;;;;;;5102996;28;20523;-46
2022/09/20 09:34:54;;;;;;;3.83;1.77;;;9.80;99.90;;;;;;5104806;28;20105;-48
2022/09/20 09:37:23;;;;;;;3.25;1.70;;;9.90;99.90;;;;;;5090340;28;20048;-48
2022/09/20 09:40:16;;;;;;;5.45;1.50;;;9.90;99.90;;;;;;5082953;28;20032;-47
2022/09/20 09:42:55;;;;;;;3.03;1.50;;;9.90;99.90;;;;;;5091837;28;20040;-48
2022/09/20 09:45:34;;;;;;;4.25;1.55;;;9.90;99.90;;;;;;5090401;28;20071;-47
2022/09/20 09:48:03;;;;;;;3.15;1.52;;;9.90;99.90;;;;;;5107542;28;20047;-47
2022/09/20 09:50:32;;;;;;;3.63;1.90;;;10.00;99.90;;;;;;5111841;28;20152;-47
2022/09/20 09:53:12;;;;;;;6.75;1.70;;;10.10;99.90;;;;;;5097470;28;20040;-47
2022/09/20 09:56:10;;;;;;;6.72;1.73;;;10.30;99.90;;;;;;5090955;28;20119;-47
2022/09/20 09:58:58;;;;;;;5.40;1.70;;;10.30;99.90;;;;;;5091139;28;20519;-48
2022/09/20 10:01:38;;;;;;;3.85;1.75;;;10.20;99.90;;;;;;5091907;28;20093;-47
2022/09/20 10:04:27;;;;;;;3.25;2.25;;;10.00;99.90;;;;;;5094837;28;20037;-47
2022/09/20 10:07:07;;;;;;;5.40;2.42;;;9.80;99.90;;;;;;5090439;28;20067;-47
2022/09/20 10:09:57;;;;;;;3.92;1.50;;;9.90;99.90;;;;;;5090636;28;20082;-48
2022/09/20 10:12:49;;;;;;;3.75;1.20;;;9.80;99.90;;;;;;5098788;28;20040;-47
2022/09/20 10:15:39;;;;;;;5.18;1.60;;;9.70;99.90;;;;;;5124450;27;20051;-47
2022/09/20 10:18:43;;;;;;;8.90;1.50;;;9.70;99.90;;;;;;5105242;28;20067;-47
2022/09/20 10:21:10;;;;;;;5.80;1.92;;;9.70;99.90;;;;;;5104089;28;20105;-47
2022/09/20 10:23:46;;;;;;;1.27;1.15;;;9.70;99.90;;;;;;5106637;28;20086;-47
2022/09/20 10:27:01;;;;;;;3.45;1.73;;;9.80;99.90;;;;;;5090541;28;20101;-47
2022/09/20 10:29:46;;;;;;;5.80;2.47;;;9.90;99.90;;;;;;5091195;28;20406;-47
2022/09/20 10:32:35;;;;;;;2.90;2.05;;;9.90;99.90;;;;;;5090889;28;20082;-47
2022/09/20 10:35:05;;;;;;;;;;;10.00;99.90;;;;;;5090860;28;20082;-47
2022/09/20 10:38:00;;;;;;;4.82;2.58;;;10.00;99.90;;;;;;5094421;28;20014;-51
2022/09/20 10:43:30;;;;;;;8.65;1.90;;;10.30;99.90;;;;;;5114468;28;20040;-47
2022/09/20 10:46:19;;;;;;;4.30;1.38;;;10.60;99.90;;;;;;5094663;28;20075;-47
2022/09/20 10:49:12;;;;;;;5.57;1.55;;;10.80;99.90;;;;;;5094383;28;20046;-47
2022/09/20 10:51:51;;;;;;;6.40;1.90;;;10.90;99.90;;;;;;5094935;28;20076;-47
2022/09/20 10:54:51;;;;;;;2.40;1.15;;;11.10;99.90;;;;;;5093519;28;20457;-47
2022/09/20 10:58:00;;;;;;;1.40;1.17;;;11.30;99.90;;;;;;5110240;28;20134;-47
2022/09/20 11:00:52;;;;;;;1.75;0.70;;;11.40;99.90;;;;;;5108114;28;20061;-47
2022/09/20 11:03:24;;;;;;;3.28;1.00;;;11.70;99.90;;;;;;5096247;28;20066;-47
2022/09/20 11:06:12;;;;;;;3.85;1.10;;;11.90;99.90;;;;;;5106799;28;20082;-47
2022/09/20 11:08:41;;;;;;;1.50;0.88;;;12.00;99.90;;;;;;5100114;28;20051;-47
2022/09/20 11:11:31;;;;;;;2.22;1.05;;;12.00;99.90;;;;;;5102866;28;20118;-46
2022/09/20 11:14:06;;;;;;;2.08;1.00;;;11.60;99.90;;;;;;5093371;28;20550;-47
2022/09/20 11:16:59;;;;;;;2.55;1.00;;;11.30;99.90;;;;;;5093137;28;20568;-47
2022/09/20 11:19:35;;;;;;;1.20;1.10;;;10.90;99.90;;;;;;5111536;28;20377;-47
2022/09/20 11:22:20;;;;;;;3.42;1.20;;;10.60;99.90;;;;;;5113479;28;20465;-46
2022/09/20 11:24:51;;;;;;;5.53;1.58;;;10.30;99.90;;;;;;5114565;27;20521;-46
2022/09/20 11:27:30;;;;;;;2.67;1.27;;;10.20;99.90;;;;;;5094082;28;20154;-47
2022/09/20 11:30:02;;;;;;;8.30;1.77;;;10.00;99.90;;;;;;5093829;28;20089;-47
2022/09/20 11:32:52;;;;;;;6.97;2.17;;;9.80;99.90;;;;;;5094276;28;20508;-47
2022/09/20 11:35:28;;;;;;;7.85;3.10;;;9.60;99.90;;;;;;5093523;28;20086;-47
2022/09/20 11:38:10;;;;;;;8.40;3.53;;;9.50;99.90;;;;;;5093665;28;20101;-47
2022/09/20 11:40:49;;;;;;;6.07;3.10;;;9.50;99.90;;;;;;5093929;28;20071;-47
2022/09/20 11:43:17;;;;;;;5.38;2.72;;;9.70;99.90;;;;;;5093944;28;20119;-46
2022/09/20 11:45:46;;;;;;;5.72;3.25;;;9.90;99.90;;;;;;5084180;28;20559;-46
2022/09/20 11:48:29;;;;;;;3.88;2.22;;;10.10;99.90;;;;;;5113453;28;20118;-47
2022/09/20 11:51:14;;;;;;;4.88;2.00;;;10.20;99.90;;;;;;5113935;28;20071;-47
2022/09/20 11:54:14;;;;;;;8.25;3.50;;;10.30;99.90;;;;;;5097369;28;20463;-46
2022/09/20 11:56:50;;;;;;;2.95;2.50;;;10.40;99.90;;;;;;5104311;28;20082;-47
2022/09/20 11:59:32;;;;;;;5.25;1.83;;;10.40;99.90;;;;;;5108794;28;20082;-48
2022/09/20 12:02:02;;;;;;;1.30;0.82;;;10.30;99.90;;;;;;5112820;28;20126;-47
2022/09/20 12:04:34;;;;;;;1.63;1.02;;;10.20;99.90;;;;;;5112317;28;20036;-47
2022/09/20 12:07:22;;;;;;;6.28;1.52;;;10.20;99.90;;;;;;5095628;28;20066;-48
2022/09/20 12:10:01;;;;;;;3.15;1.20;;;10.30;99.90;;;;;;5116165;27;20096;-47
2022/09/20 12:12:46;;;;;;;3.65;1.00;;;10.50;99.90;;;;;;5132377;27;20522;-47
2022/09/20 12:15:33;;;;;;;1.73;0.90;;;10.70;99.90;;;;;;5092685;28;20526;-47
2022/09/20 12:18:07;;;;;;;9.63;5.55;;;10.80;99.90;;;;;;5093365;28;20079;-47
2022/09/20 12:20:37;;;;;;;5.18;2.58;;;10.90;99.90;;;;;;5092533;28;20126;-47
2022/09/20 12:23:41;;;;;;;3.33;2.25;;;11.00;99.90;;;;;;5106383;28;20162;-47
2022/09/20 12:27:05;;;;;;;5.60;3.33;;;11.00;99.90;;;;;;5108241;22;20097;-45
2022/09/20 12:29:33;;;;;;;5.40;2.70;;;11.00;99.90;;;;;;5110179;27;20031;-45
2022/09/20 12:32:21;;;;;;;5.13;1.88;;;11.00;99.90;;;;;;5117384;27;20150;-45
2022/09/20 12:34:48;;;;;;;3.95;1.67;;;10.90;99.90;;;;;;5106236;28;20822;-45
2022/09/20 12:37:20;;;;;;;4.90;2.35;;;10.90;99.90;;;;;;5113067;28;20070;-44
2022/09/20 12:39:54;;;;;;;6.40;2.90;;;10.90;99.90;;;;;;5112510;28;20063;-45
2022/09/20 12:42:29;;;;;;;5.75;2.30;;;10.80;99.90;;;;;;5112423;28;20039;-44
2022/09/20 12:45:16;;;;;;;6.25;3.35;;;10.90;99.90;;;;;;5103246;28;20078;-44
2022/09/20 12:47:53;;;;;;;8.07;4.72;;;10.80;99.90;;;;;;5106551;28;20333;-45
2022/09/20 12:53:13;;;;;;;7.53;2.85;;;11.00;99.90;;;;;;5112472;28;20047;-45
2022/09/20 12:55:41;;;;;;;5.65;2.95;;;11.20;99.90;;;;;;5112139;28;20499;-44
2022/09/20 12:58:12;;;;;;;11.27;5.05;;;11.20;99.90;;;;;;5106205;28;20075;-44
2022/09/20 13:01:09;;;;;;;7.50;4.22;;;11.30;99.90;;;;;;5112499;28;20089;-45
2022/09/20 13:03:48;;;;;;;7.93;3.90;;;11.50;99.90;;;;;;5103722;28;20118;-44
2022/09/20 13:06:16;;;;;;;6.95;3.20;;;11.60;99.90;;;;;;5111533;28;20114;-45
2022/09/20 13:08:49;;;;;;;4.13;2.00;;;11.60;99.90;;;;;;5105997;28;20044;-45
2022/09/20 13:11:35;;;;;;;3.67;2.33;;;11.50;99.90;;;;;;5111835;28;20405;-44
2022/09/20 13:14:08;;;;;;;5.22;2.90;;;11.70;99.90;;;;;;5111277;28;20122;-45
2022/09/20 13:16:55;;;;;;;3.00;1.67;;;11.90;99.90;;;;;;5105857;28;20066;-45
2022/09/20 13:19:36;;;;;;;4.65;1.85;;;11.90;99.90;;;;;;5091728;28;20064;-45
2022/09/20 13:22:42;;;;;;;5.38;2.20;;;11.90;99.90;;;;;;5091466;28;20143;-45
2022/09/20 13:25:16;;;;;;;2.65;2.17;;;12.00;99.90;;;;;;5091200;28;20076;-45
2022/09/20 13:27:52;;;;;;;3.88;2.10;;;12.00;99.90;;;;;;5100789;28;20074;-45
2022/09/20 13:30:21;;;;;;;3.50;2.20;;;11.80;99.90;;;;;;5112142;28;20108;-44
2022/09/20 13:32:49;;;;;;;6.43;3.08;;;11.30;99.90;;;;;;5111051;28;20507;-44
2022/09/20 13:35:30;;;;;;;7.32;2.40;;;11.20;99.90;;;;;;5111665;28;20492;-45
2022/09/20 13:38:04;;;;;;;4.57;2.08;;;11.20;99.90;;;;;;5106776;28;20043;-45
2022/09/20 13:40:42;;;;;;;5.15;2.67;;;11.30;99.90;;;;;;5090857;28;20134;-44
2022/09/20 13:43:32;;;;;;;4.43;2.50;;;11.20;99.90;;;;;;5108223;28;20043;-45
2022/09/20 13:46:11;;;;;;;2.20;1.98;;;11.20;99.90;;;;;;5094628;28;20623;-45
2022/09/20 13:48:39;;;;;;;3.53;1.92;;;11.20;99.90;;;;;;5089357;28;20044;-45
2022/09/20 13:51:23;;;;;;;3.08;1.88;;;11.30;99.90;;;;;;5094326;28;20072;-44
2022/09/20 13:53:50;;;;;;;2.67;1.30;;;11.40;99.90;;;;;;5088605;28;20101;-45
2022/09/20 13:56:24;;;;;;;2.15;1.60;;;11.50;99.90;;;;;;5093041;28;20036;-44
2022/09/20 13:58:51;;;;;;;11.43;4.40;;;11.50;99.90;;;;;;5090276;28;20098;-44
2022/09/20 14:01:29;;;;;;;6.45;2.95;;;11.50;99.90;;;;;;5098206;28;20530;-45
2022/09/20 14:04:16;;;;;;;4.60;2.40;;;11.60;99.90;;;;;;5105664;28;20113;-45
2022/09/20 14:06:44;;;;;;;2.63;1.77;;;11.70;99.90;;;;;;5111348;28;20122;-44
2022/09/20 14:09:29;;;;;;;7.38;3.20;;;11.70;99.90;;;;;;5102430;28;20079;-45
2022/09/20 14:11:57;;;;;;;3.72;2.20;;;11.80;99.90;;;;;;5104700;28;20079;-45
2022/09/20 14:14:26;;;;;;;4.28;2.15;;;11.80;99.90;;;;;;5090314;28;20512;-45
2022/09/20 14:16:56;;;;;;;8.88;2.88;;;11.80;99.90;;;;;;5100270;28;20122;-46
2022/09/20 14:19:32;;;;;;;8.63;3.15;;;11.70;99.90;;;;;;5099181;28;20040;-45